Time;durP1;ratioP1;P1;durP2;ratioP2;P2;SDS_P1;SDS_P2;PMS_P1;PMS_P2;Temp;Humidity;BMP_temperature;BMP_pressure;BME280_temperature;BME280_humidity;BME280_pressure;Samples;Min_cycle;Max_cycle;Signal;HPM_P1;HPM_P2
2023/05/30 00:01:06;;;;;;;;;5.25;5.25;;;;;20.60;33.61;101586.78;4962780;28;45242;-58
2023/05/30 00:03:38;;;;;;;;;5.00;4.50;;;;;20.58;33.84;101588.66;4962805;28;45529;-58
2023/05/30 00:06:04;;;;;;;;;5.00;5.00;;;;;20.56;33.81;101585.19;4966631;28;45478;-58
2023/05/30 00:08:29;;;;;;;;;4.75;4.75;;;;;20.55;33.86;101588.78;4973756;28;45251;-58
2023/05/30 00:10:55;;;;;;;;;5.00;5.00;;;;;20.53;33.91;101590.69;4962310;28;46010;-58
2023/05/30 00:13:20;;;;;;;;;6.00;5.75;;;;;20.51;33.79;101595.19;4962921;28;45354;-57
2023/05/30 00:15:47;;;;;;;;;6.00;5.00;;;;;20.48;34.05;101584.63;4962604;28;45669;-58
2023/05/30 00:18:12;;;;;;;;;6.00;5.00;;;;;20.44;34.30;101592.78;4977575;28;45407;-58
2023/05/30 00:20:38;;;;;;;;;6.00;4.00;;;;;20.42;33.93;101583.97;4962970;28;46176;-58
2023/05/30 00:23:03;;;;;;;;;4.25;4.25;;;;;20.40;34.02;101587.63;4962661;28;45240;-58
2023/05/30 00:25:29;;;;;;;;;6.00;6.00;;;;;20.34;34.21;101578.09;4978157;28;45283;-57
2023/05/30 00:27:54;;;;;;;;;3.25;3.25;;;;;20.36;33.92;101584.22;4970410;28;45464;-58
2023/05/30 00:30:20;;;;;;;;;7.75;5.00;;;;;20.32;33.83;101579.94;4961341;28;46242;-58
2023/05/30 00:32:45;;;;;;;;;3.00;2.50;;;;;20.30;34.12;101571.13;4962315;28;45511;-58
2023/05/30 00:35:10;;;;;;;;;5.25;4.00;;;;;20.26;33.89;101577.53;4962818;28;45316;-58
2023/05/30 00:37:36;;;;;;;;;4.50;3.50;;;;;20.25;34.09;101581.13;4962462;28;45412;-58
2023/05/30 00:40:01;;;;;;;;;2.75;1.00;;;;;20.22;34.44;101590.13;4962504;28;45272;-58
2023/05/30 00:42:28;;;;;;;;;8.00;5.75;;;;;20.21;33.96;101584.88;4962366;28;45343;-58
2023/05/30 00:44:53;;;;;;;;;6.50;4.00;;;;;20.19;34.24;101592.06;4977441;28;45403;-57
2023/05/30 00:47:19;;;;;;;;;3.75;3.00;;;;;20.17;34.50;101588.59;4960892;28;45663;-58
2023/05/30 00:49:45;;;;;;;;;3.00;3.00;;;;;20.13;34.01;101585.19;4962405;28;45342;-57
2023/05/30 00:52:11;;;;;;;;;4.00;4.00;;;;;20.12;34.03;101594.13;4961027;28;45829;-57
2023/05/30 00:54:42;;;;;;;;;4.00;4.00;;;;;20.09;34.44;101597.78;4962527;28;45421;-56
2023/05/30 00:57:08;;;;;;;;;7.00;6.75;;;;;20.07;33.94;101598.78;4962096;28;45446;-57
2023/05/30 00:59:34;;;;;;;;;5.00;4.25;;;;;20.06;33.88;101605.03;4962045;28;45943;-57
2023/05/30 01:01:59;;;;;;;;;3.00;3.00;;;;;20.02;34.37;101598.09;4962130;28;45350;-57
2023/05/30 01:04:24;;;;;;;;;6.00;4.00;;;;;20.01;33.98;101605.22;4962137;28;45365;-57
2023/05/30 01:06:50;;;;;;;;;7.00;4.00;;;;;20.00;34.15;101599.94;4965488;28;45377;-57
2023/05/30 01:09:16;;;;;;;;;4.25;3.50;;;;;19.99;34.33;101601.75;4962187;28;45434;-58
2023/05/30 01:12:01;;;;;;;;;5.50;4.25;;;;;19.96;34.28;101596.53;4961794;28;45492;-57
2023/05/30 01:14:53;;;;;;;;;7.00;4.25;;;;;19.91;34.25;101595.84;4961976;28;45343;-56
2023/05/30 01:17:21;;;;;;;;;6.00;5.00;;;;;19.89;34.32;101595.06;4958481;28;45342;-58
2023/05/30 01:19:54;;;;;;;;;6.00;5.00;;;;;19.86;34.16;101593.38;4976473;28;48428;-57
2023/05/30 01:22:50;;;;;;;;;4.75;4.50;;;;;19.84;34.29;101594.38;4960996;28;45397;-58
2023/05/30 01:25:43;;;;;;;;;7.00;5.00;;;;;19.80;34.21;101606.94;4973311;28;45406;-58
2023/05/30 01:28:12;;;;;;;;;5.50;3.00;;;;;19.77;33.70;101607.03;4967322;28;45337;-58
2023/05/30 01:30:52;;;;;;;;;4.00;4.00;;;;;19.76;33.99;101605.28;4976674;28;48163;-58
2023/05/30 01:33:21;;;;;;;;;4.75;4.50;;;;;19.73;33.78;101611.59;4961319;28;45287;-58
2023/05/30 01:35:47;;;;;;;;;7.50;5.75;;;;;19.68;34.07;101602.94;4961831;28;45306;-57
2023/05/30 01:38:13;;;;;;;;;3.50;3.50;;;;;19.68;33.65;101615.41;4961464;28;45441;-57
2023/05/30 01:40:40;;;;;;;;;5.25;5.25;;;;;19.63;33.74;101599.56;4961579;28;45342;-58
2023/05/30 01:43:37;;;;;;;;;8.00;4.25;;;;;19.59;34.20;101606.81;4961427;28;45176;-58
2023/05/30 01:46:16;;;;;;;;;4.50;4.25;;;;;19.56;34.29;101601.63;4955106;28;45324;-58
2023/05/30 01:48:41;;;;;;;;;10.25;4.25;;;;;19.52;34.16;101613.34;4980851;28;45397;-58
2023/05/30 01:51:12;;;;;;;;;7.00;6.75;;;;;19.44;34.04;101600.28;4980655;28;45374;-58
2023/05/30 01:53:46;;;;;;;;;3.00;3.00;;;;;19.47;34.06;101609.94;4980957;28;45310;-58
2023/05/30 01:56:13;;;;;;;;;3.50;3.50;;;;;19.43;33.95;101601.22;4979754;28;45216;-58
2023/05/30 01:58:40;;;;;;;;;9.50;5.25;;;;;19.41;34.38;101595.06;4980869;28;45316;-58
2023/05/30 02:01:07;;;;;;;;;8.00;4.00;;;;;19.38;34.39;101600.50;4980742;28;46426;-58
2023/05/30 02:03:32;;;;;;;;;5.00;4.75;;;;;19.34;34.34;101593.56;4980348;28;45425;-58
2023/05/30 02:05:59;;;;;;;;;6.25;5.50;;;;;19.31;33.82;101597.19;4973187;28;45529;-57
2023/05/30 02:08:24;;;;;;;;;6.50;5.75;;;;;19.27;34.38;101602.69;4960084;28;45858;-57
2023/05/30 02:10:50;;;;;;;;;5.25;4.50;;;;;19.22;34.45;101605.56;4960715;28;56072;-58
2023/05/30 02:13:15;;;;;;;;;4.25;3.50;;;;;19.18;34.04;101606.56;4961199;28;45413;-57
2023/05/30 02:15:40;;;;;;;;;4.00;4.00;;;;;19.14;34.19;101605.84;4961231;28;45604;-57
2023/05/30 02:18:08;;;;;;;;;4.75;3.25;;;;;19.10;34.41;101606.00;4960950;28;45413;-57
2023/05/30 02:20:33;;;;;;;;;5.25;3.00;;;;;19.08;34.10;101611.38;4961012;28;46948;-58
2023/05/30 02:22:58;;;;;;;;;5.00;5.00;;;;;19.05;34.23;101603.50;4960777;28;45264;-56
2023/05/30 02:25:24;;;;;;;;;6.50;4.75;;;;;19.04;34.26;101599.09;4974964;28;45343;-57
2023/05/30 02:27:50;;;;;;;;;7.50;6.00;;;;;19.02;34.45;101608.06;4971543;28;45525;-57
2023/05/30 02:30:16;;;;;;;;;5.00;5.00;;;;;18.97;34.53;101608.25;4960876;28;46183;-57
2023/05/30 02:32:41;;;;;;;;;6.00;6.00;;;;;18.96;34.24;101603.81;4960369;28;45404;-57
2023/05/30 02:35:07;;;;;;;;;4.50;4.00;;;;;18.93;34.38;101606.59;4964623;28;45241;-58
2023/05/30 02:37:32;;;;;;;;;4.00;4.00;;;;;18.89;34.44;101600.47;4963004;28;45333;-57
2023/05/30 02:39:58;;;;;;;;;4.25;4.25;;;;;18.87;34.61;101605.00;4964238;28;52049;-57
2023/05/30 02:42:23;;;;;;;;;5.75;3.50;;;;;18.83;34.40;101604.22;4964129;28;45343;-58
2023/05/30 02:44:48;;;;;;;;;5.75;5.00;;;;;18.80;34.55;101604.34;4963392;28;45430;-57
2023/05/30 02:47:14;;;;;;;;;6.75;4.25;;;;;18.78;34.34;101605.28;4963253;28;45586;-57
2023/05/30 02:49:39;;;;;;;;;6.00;4.75;;;;;18.72;34.59;101611.72;4961915;28;47399;-57
2023/05/30 02:52:05;;;;;;;;;5.00;4.50;;;;;18.67;34.68;101603.88;4963207;28;47409;-57
2023/05/30 02:54:31;;;;;;;;;5.00;4.00;;;;;18.65;34.65;101604.88;4963966;28;45465;-58
2023/05/30 02:56:57;;;;;;;;;5.50;4.00;;;;;18.63;34.55;101615.56;4963578;28;45500;-57
2023/05/30 02:59:22;;;;;;;;;5.00;5.00;;;;;18.61;34.62;101611.22;4964063;28;45314;-56
2023/05/30 03:01:47;;;;;;;;;6.00;5.50;;;;;18.56;34.73;101608.69;4963845;28;45259;-57
2023/05/30 03:04:13;;;;;;;;;5.25;4.00;;;;;18.55;34.74;101609.63;4963953;28;45369;-56
2023/05/30 03:06:38;;;;;;;;;4.25;3.75;;;;;18.52;34.68;101604.41;4967310;28;46578;-58
2023/05/30 03:09:04;;;;;;;;;10.75;7.00;;;;;18.51;34.60;101603.56;4963994;28;45355;-58
2023/05/30 03:11:29;;;;;;;;;5.75;5.00;;;;;18.48;34.69;101608.97;4963683;28;45247;-57
2023/05/30 03:13:54;;;;;;;;;6.25;5.00;;;;;18.46;34.71;101610.81;4964022;28;45924;-56
2023/05/30 03:16:20;;;;;;;;;5.50;5.00;;;;;18.44;34.93;101612.66;4962532;28;45443;-57
2023/05/30 03:18:45;;;;;;;;;5.00;4.00;;;;;18.41;35.00;101615.41;4963169;28;46338;-57
2023/05/30 03:21:11;;;;;;;;;9.25;5.75;;;;;18.37;35.19;101611.13;4963870;28;45321;-57
2023/05/30 03:23:37;;;;;;;;;5.00;3.50;;;;;18.36;35.03;101620.00;4963716;28;45385;-57
2023/05/30 03:26:03;;;;;;;;;5.50;3.75;;;;;18.34;35.14;101628.06;4988020;28;45350;-57
2023/05/30 03:28:28;;;;;;;;;2.25;2.25;;;;;18.34;35.01;101627.19;4963551;28;47117;-57
2023/05/30 03:30:56;;;;;;;;;6.00;5.00;;;;;18.32;34.95;101623.72;4962286;28;45257;-56
2023/05/30 03:33:22;;;;;;;;;5.25;5.25;;;;;18.23;35.02;101622.22;4962450;28;45359;-57
2023/05/30 03:35:48;;;;;;;;;5.50;3.50;;;;;18.28;35.01;101630.91;4963398;28;45239;-56
2023/05/30 03:38:13;;;;;;;;;4.00;4.00;;;;;18.27;35.12;101639.81;4963478;28;45450;-56
2023/05/30 03:40:39;;;;;;;;;6.00;5.00;;;;;18.27;35.22;101636.28;4963465;28;45299;-56
2023/05/30 03:43:04;;;;;;;;;6.75;6.00;;;;;18.25;35.11;101639.00;4963567;28;45375;-56
2023/05/30 03:45:29;;;;;;;;;13.75;10.25;;;;;18.25;35.18;101643.44;4962328;28;45369;-57
2023/05/30 03:47:55;;;;;;;;;7.75;5.25;;;;;18.23;35.08;101638.19;4963258;28;45414;-56
2023/05/30 03:50:20;;;;;;;;;6.50;4.75;;;;;18.21;35.26;101625.84;4963287;28;45266;-57
2023/05/30 03:52:45;;;;;;;;;5.50;3.25;;;;;18.19;35.22;101640.06;4963304;28;45310;-57
2023/05/30 03:55:11;;;;;;;;;6.00;4.00;;;;;18.17;35.36;101635.72;4961814;28;45495;-57
2023/05/30 03:57:36;;;;;;;;;5.50;4.00;;;;;18.16;35.40;101633.97;4962958;28;48248;-57
2023/05/30 04:00:01;;;;;;;;;4.00;3.00;;;;;18.14;35.30;101639.34;4963130;28;45342;-57
2023/05/30 04:02:27;;;;;;;;;5.75;5.00;;;;;18.12;35.39;101643.81;4962953;28;45266;-58
2023/05/30 04:04:53;;;;;;;;;8.25;5.50;;;;;18.09;35.33;101638.63;4965806;28;45302;-56
2023/05/30 04:07:18;;;;;;;;;6.25;3.50;;;;;18.05;35.00;101636.97;4963617;28;46794;-56
2023/05/30 04:09:43;;;;;;;;;3.50;3.00;;;;;18.03;35.46;101642.31;4962701;28;47074;-56
2023/05/30 04:12:09;;;;;;;;;5.00;5.00;;;;;18.01;35.47;101635.31;4962967;28;45321;-56
2023/05/30 04:14:35;;;;;;;;;5.50;5.25;;;;;17.97;35.47;101634.53;4962942;28;45306;-57
2023/05/30 04:17:00;;;;;;;;;4.75;4.25;;;;;17.92;35.50;101620.47;4962130;28;54592;-56
2023/05/30 04:19:25;;;;;;;;;6.25;5.00;;;;;17.87;35.47;101627.72;4962676;28;45267;-56
2023/05/30 04:21:54;;;;;;;;;7.00;5.75;;;;;17.86;35.86;101636.63;4963014;28;45199;-57
2023/05/30 04:24:19;;;;;;;;;4.50;4.00;;;;;17.87;35.55;101641.91;4962933;28;45573;-56
2023/05/30 04:26:48;;;;;;;;;8.00;6.00;;;;;17.85;35.71;101646.41;4986890;28;45472;-56
2023/05/30 04:29:14;;;;;;;;;6.75;4.75;;;;;17.86;35.45;101648.16;4962729;28;45199;-56
2023/05/30 04:31:39;;;;;;;;;9.25;7.50;;;;;17.85;35.69;101651.72;4962638;28;45219;-56
2023/05/30 04:34:04;;;;;;;;;4.50;4.50;;;;;17.82;35.80;101659.81;4962496;28;45393;-56
2023/05/30 04:36:32;;;;;;;;;4.00;4.00;;;;;17.79;35.67;101665.19;4962487;28;45211;-56
2023/05/30 04:38:58;;;;;;;;;7.00;4.50;;;;;17.76;36.05;101667.94;4962710;28;45448;-56
2023/05/30 04:41:27;;;;;;;;;4.75;4.00;;;;;17.74;35.99;101669.78;4962355;28;45282;-56
2023/05/30 04:43:57;;;;;;;;;5.00;4.25;;;;;17.72;35.92;101671.59;4962379;28;45429;-55
2023/05/30 04:46:27;;;;;;;;;8.75;6.00;;;;;17.68;35.56;101678.81;4962325;28;45453;-56
2023/05/30 04:48:55;;;;;;;;;4.25;3.75;;;;;17.67;35.64;101682.38;4977151;28;45327;-56
2023/05/30 04:51:22;;;;;;;;;4.25;4.00;;;;;17.64;35.73;101690.44;4962524;28;45285;-56
2023/05/30 04:53:48;;;;;;;;;6.00;5.00;;;;;17.62;36.00;101686.97;4962505;28;45251;-61
2023/05/30 04:56:14;;;;;;;;;8.50;8.00;;;;;17.61;35.82;101681.66;4962019;28;45379;-56
2023/05/30 04:58:39;;;;;;;;;6.75;6.00;;;;;17.60;35.71;101680.81;4962244;28;45321;-56
2023/05/30 05:01:09;;;;;;;;;7.00;5.50;;;;;17.60;35.74;101679.94;4962476;28;45322;-56
2023/05/30 05:03:35;;;;;;;;;6.00;4.00;;;;;17.60;35.90;101678.16;4961916;28;45426;-57
2023/05/30 05:06:00;;;;;;;;;5.25;3.25;;;;;17.61;35.83;101677.25;4966160;28;46298;-56
2023/05/30 05:08:26;;;;;;;;;3.50;3.50;;;;;17.63;35.99;101685.16;4962140;28;45209;-56
2023/05/30 05:10:51;;;;;;;;;5.00;4.50;;;;;17.61;35.94;101687.88;4962287;28;45475;-56
2023/05/30 05:13:17;;;;;;;;;7.75;6.00;;;;;17.62;36.09;101691.38;4961962;28;45488;-55
2023/05/30 05:15:42;;;;;;;;;9.00;5.00;;;;;17.60;36.22;101694.09;4961829;28;50048;-59
2023/05/30 05:18:10;;;;;;;;;4.00;4.00;;;;;17.60;36.00;101694.09;4960394;28;45268;-59
2023/05/30 05:20:35;;;;;;;;;8.50;5.00;;;;;17.62;36.04;101694.94;4961886;28;45484;-59
2023/05/30 05:23:03;;;;;;;;;3.00;3.00;;;;;17.62;36.21;101694.03;4976504;28;45516;-59
2023/05/30 05:25:28;;;;;;;;;4.50;4.50;;;;;17.60;35.94;101693.25;4975518;28;45558;-59
2023/05/30 05:27:54;;;;;;;;;5.00;4.00;;;;;17.62;36.22;101692.28;4972330;28;45243;-58
2023/05/30 05:30:19;;;;;;;;;6.00;5.50;;;;;17.60;36.30;101701.22;4962029;28;45405;-58
2023/05/30 05:32:45;;;;;;;;;6.00;4.00;;;;;17.61;36.18;101705.59;4961422;28;45244;-58
2023/05/30 05:35:11;;;;;;;;;4.00;4.00;;;;;17.62;36.13;101696.69;4961678;28;45324;-58
2023/05/30 05:37:36;;;;;;;;;8.00;5.50;;;;;17.63;36.28;101707.28;4961200;28;50950;-58
2023/05/30 05:40:05;;;;;;;;;2.50;2.50;;;;;17.64;36.31;101697.53;4962036;28;45410;-58
2023/05/30 05:42:32;;;;;;;;;4.50;4.50;;;;;17.63;36.09;101701.97;4961512;28;45504;-57
2023/05/30 05:44:57;;;;;;;;;8.25;5.75;;;;;17.63;36.24;101701.97;4961579;28;46633;-58
2023/05/30 05:47:22;;;;;;;;;6.75;5.25;;;;;17.64;36.10;101705.50;4961033;28;45433;-57
2023/05/30 05:49:48;;;;;;;;;6.00;4.25;;;;;17.64;36.41;101709.03;4961808;28;45307;-57
2023/05/30 05:52:13;;;;;;;;;11.00;7.50;;;;;17.64;36.45;101713.50;4961335;28;45314;-57
2023/05/30 05:54:38;;;;;;;;;7.00;6.50;;;;;17.65;36.31;101708.13;4961392;28;46307;-57
2023/05/30 05:57:06;;;;;;;;;5.50;5.50;;;;;17.67;36.58;101716.03;4960839;28;45314;-57
2023/05/30 05:59:31;;;;;;;;;8.00;6.50;;;;;17.66;36.08;101708.97;4961978;28;45310;-57
2023/05/30 06:01:56;;;;;;;;;3.50;3.50;;;;;17.70;36.30;101705.34;4961042;28;45251;-57
2023/05/30 06:04:21;;;;;;;;;6.50;4.75;;;;;17.70;36.48;101703.53;4960856;28;52180;-57
2023/05/30 06:06:47;;;;;;;;;3.75;3.75;;;;;17.71;36.30;101715.06;4964858;28;48683;-57
2023/05/30 06:09:12;;;;;;;;;5.75;3.25;;;;;17.73;36.17;101704.38;4960975;28;45297;-56
2023/05/30 06:11:37;;;;;;;;;5.25;5.00;;;;;17.73;36.21;101707.91;4961093;28;45662;-57
2023/05/30 06:14:04;;;;;;;;;7.00;5.50;;;;;17.74;36.46;101709.66;4960930;28;45430;-55
2023/05/30 06:16:29;;;;;;;;;6.00;4.00;;;;;17.76;36.25;101713.16;4960611;28;45448;-55
2023/05/30 06:18:55;;;;;;;;;5.00;5.00;;;;;17.77;36.40;101717.53;4959537;28;45503;-55
2023/05/30 06:21:20;;;;;;;;;6.50;4.50;;;;;17.79;36.60;101726.34;4959789;28;45468;-55
2023/05/30 06:23:45;;;;;;;;;6.25;3.50;;;;;17.81;36.39;101710.31;4961057;28;46301;-55
2023/05/30 06:26:11;;;;;;;;;5.50;5.50;;;;;17.83;36.38;101722.66;4985269;28;45346;-55
2023/05/30 06:28:36;;;;;;;;;6.25;4.25;;;;;17.86;36.90;101725.25;4961099;28;45382;-55
2023/05/30 06:31:01;;;;;;;;;6.00;5.50;;;;;17.91;36.47;101722.47;4960860;28;45516;-56
2023/05/30 06:33:27;;;;;;;;;5.75;5.00;;;;;17.90;36.37;101712.75;4960684;28;47314;-55
2023/05/30 06:35:52;;;;;;;;;11.75;6.75;;;;;17.96;36.45;101714.38;4960844;28;45320;-55
2023/05/30 06:38:19;;;;;;;;;5.00;5.00;;;;;18.00;36.49;101716.03;4961068;28;45310;-56
2023/05/30 06:40:44;;;;;;;;;6.50;6.50;;;;;18.05;36.73;101719.44;4959691;28;45228;-56
2023/05/30 06:43:10;;;;;;;;;6.75;5.75;;;;;18.08;36.47;101723.78;4968105;28;45457;-56
2023/05/30 06:45:35;;;;;;;;;5.25;3.75;;;;;18.11;36.62;101721.91;4979264;28;45390;-57
2023/05/30 06:48:01;;;;;;;;;4.75;4.00;;;;;18.10;36.42;101709.50;4971154;28;45291;-56
2023/05/30 06:50:27;;;;;;;;;7.75;6.50;;;;;18.16;36.80;101719.97;4982575;28;45239;-56
2023/05/30 06:52:52;;;;;;;;;4.75;4.00;;;;;18.22;36.94;101715.38;4979888;28;45323;-56
2023/05/30 06:55:17;;;;;;;;;6.00;5.00;;;;;18.22;36.69;101712.72;4977931;28;46075;-56
2023/05/30 06:57:44;;;;;;;;;6.25;6.25;;;;;18.26;36.67;101717.00;4970544;28;45200;-54
2023/05/30 07:00:10;;;;;;;;;4.00;4.00;;;;;18.29;36.76;101719.59;4974839;28;45326;-56
2023/05/30 07:02:36;;;;;;;;;6.00;4.75;;;;;18.32;36.62;101735.44;4990889;28;47953;-55
2023/05/30 07:05:01;;;;;;;;;5.25;3.25;;;;;18.35;36.84;101728.25;4978724;28;45361;-53
2023/05/30 07:07:26;;;;;;;;;8.75;4.50;;;;;18.34;37.01;101722.97;4980150;28;45634;-54
2023/05/30 07:09:52;;;;;;;;;6.00;4.00;;;;;18.34;37.05;101722.97;4979572;28;45455;-55
2023/05/30 07:12:17;;;;;;;;;5.25;3.75;;;;;18.37;36.91;101722.88;4979658;28;47370;-56
2023/05/30 07:14:42;;;;;;;;;5.00;5.00;;;;;18.40;37.08;101730.78;4979441;28;45257;-54
2023/05/30 07:17:08;;;;;;;;;5.75;4.00;;;;;18.41;37.00;101729.84;4988811;28;45443;-52
2023/05/30 07:19:33;;;;;;;;;8.25;5.00;;;;;18.47;36.96;101729.63;4978765;28;45342;-54
2023/05/30 07:21:58;;;;;;;;;7.50;3.75;;;;;18.48;37.01;101726.06;4982999;28;46241;-53
2023/05/30 07:24:24;;;;;;;;;5.75;5.00;;;;;18.52;37.13;101733.03;4982731;28;51223;-53
2023/05/30 07:26:50;;;;;;;;;4.50;4.50;;;;;18.57;36.97;101726.72;4981293;28;45306;-54
2023/05/30 07:29:15;;;;;;;;;6.75;5.50;;;;;18.59;36.75;101728.41;4972472;28;45172;-55
2023/05/30 07:31:41;;;;;;;;;4.50;4.50;;;;;18.61;36.67;101726.53;4997854;28;46205;-54
2023/05/30 07:34:06;;;;;;;;;4.25;4.00;;;;;18.65;37.07;101724.66;4972025;28;45175;-57
2023/05/30 07:36:32;;;;;;;;;4.25;4.25;;;;;18.70;36.92;101729.84;4969986;28;45394;-56
2023/05/30 07:38:57;;;;;;;;;8.25;7.50;;;;;18.73;36.81;101724.38;4982984;28;45463;-56
2023/05/30 07:41:23;;;;;;;;;6.75;4.00;;;;;18.76;37.17;101725.16;4969397;28;45192;-56
2023/05/30 07:43:49;;;;;;;;;5.25;3.50;;;;;18.81;36.69;101730.34;4982750;28;45319;-55
2023/05/30 07:46:14;;;;;;;;;5.00;4.50;;;;;18.84;36.83;101731.13;4972926;28;45307;-55
2023/05/30 07:48:40;;;;;;;;;6.25;5.50;;;;;18.86;37.13;101722.22;4974657;28;45258;-58
2023/05/30 07:51:06;;;;;;;;;5.50;3.75;;;;;18.91;37.04;101722.97;4987368;28;45474;-55
2023/05/30 07:53:31;;;;;;;;;4.50;4.00;;;;;18.95;36.81;101729.91;4982571;28;45278;-54
2023/05/30 07:55:58;;;;;;;;;5.00;4.75;;;;;18.96;36.97;101729.00;4980380;28;45462;-55
2023/05/30 07:58:24;;;;;;;;;5.00;2.75;;;;;19.02;37.07;101722.56;4982590;28;45505;-58
2023/05/30 08:00:50;;;;;;;;;4.25;4.00;;;;;19.06;37.22;101727.75;4981029;28;46012;-56
2023/05/30 08:03:15;;;;;;;;;6.25;4.00;;;;;19.09;37.29;101729.44;4969398;28;45224;-58
2023/05/30 08:05:40;;;;;;;;;7.25;5.00;;;;;19.08;36.94;101727.69;4982357;28;45199;-55
2023/05/30 08:08:07;;;;;;;;;5.25;5.25;;;;;19.18;36.91;101739.78;4982503;28;45172;-55
2023/05/30 08:10:32;;;;;;;;;5.50;4.00;;;;;19.20;37.54;101735.28;4982258;28;46277;-55
2023/05/30 08:12:58;;;;;;;;;5.00;5.00;;;;;19.27;37.50;101743.91;4982122;28;45307;-56
2023/05/30 08:15:23;;;;;;;;;5.00;5.00;;;;;19.28;37.01;101738.56;4980976;28;45293;-57
2023/05/30 08:17:49;;;;;;;;;7.50;5.50;;;;;19.35;36.85;101741.00;4981966;28;45326;-58
2023/05/30 08:20:16;;;;;;;;;6.00;4.00;;;;;19.41;37.20;101744.31;4982133;28;46144;-54
2023/05/30 08:22:41;;;;;;;;;7.25;6.75;;;;;19.45;36.91;101750.41;4981974;28;45278;-54
2023/05/30 08:25:08;;;;;;;;;7.00;3.75;;;;;19.49;36.96;101752.03;4979108;28;45343;-54
2023/05/30 08:27:34;;;;;;;;;4.25;4.25;;;;;19.53;36.64;101743.00;4981942;28;46363;-55
2023/05/30 08:30:00;;;;;;;;;6.75;5.25;;;;;19.59;36.96;101742.78;4981744;28;47162;-56
2023/05/30 08:32:26;;;;;;;;;7.50;6.00;;;;;19.63;37.11;101746.19;4981487;28;45612;-58
2023/05/30 08:34:51;;;;;;;;;5.75;5.00;;;;;19.68;36.80;101732.72;4980714;28;45282;-56
2023/05/30 08:37:18;;;;;;;;;3.50;3.25;;;;;19.74;37.40;101746.69;4981895;28;45231;-56
2023/05/30 08:39:44;;;;;;;;;7.00;5.00;;;;;19.77;36.93;101738.59;4981517;28;46188;-56
2023/05/30 08:42:12;;;;;;;;;5.75;4.75;;;;;19.81;36.83;101748.19;4981697;28;45358;-56
2023/05/30 08:44:38;;;;;;;;;7.25;5.00;;;;;19.84;36.96;101741.91;4981952;28;45405;-55
2023/05/30 08:47:06;;;;;;;;;5.00;5.00;;;;;19.92;36.97;101739.84;4981724;28;45612;-55
2023/05/30 08:49:33;;;;;;;;;8.25;4.75;;;;;19.98;36.69;101733.38;5000608;28;48497;-57
2023/05/30 08:52:02;;;;;;;;;3.75;3.75;;;;;20.04;37.22;101734.97;4981556;28;45396;-58
2023/05/30 08:54:32;;;;;;;;;6.50;5.25;;;;;20.08;36.61;101733.91;4981816;28;45411;-57
2023/05/30 08:57:30;;;;;;;;;6.75;4.50;;;;;20.13;37.11;101730.13;4979706;28;45378;-58
2023/05/30 08:59:56;;;;;;;;;7.00;5.00;;;;;20.16;37.39;101723.78;4966622;28;46108;-58
2023/05/30 09:02:22;;;;;;;;;6.00;4.25;;;;;20.23;36.76;101727.13;4980703;28;45408;-57
2023/05/30 09:04:49;;;;;;;;;8.25;6.00;;;;;20.23;37.14;101716.44;4973938;28;45426;-58
2023/05/30 09:07:15;;;;;;;;;4.00;4.00;;;;;20.36;37.27;101728.34;4969817;28;45243;-57
2023/05/30 09:09:41;;;;;;;;;9.25;9.25;;;;;20.41;37.24;101733.50;4966673;28;47464;-58
2023/05/30 09:12:08;;;;;;;;;6.00;6.00;;;;;20.42;36.99;101714.75;4970200;28;45519;-58
2023/05/30 09:14:34;;;;;;;;;8.75;7.25;;;;;20.51;37.00;101729.53;4975091;28;45345;-57
2023/05/30 09:16:59;;;;;;;;;11.50;6.00;;;;;20.56;37.19;101724.88;4977416;28;45398;-57
2023/05/30 09:19:26;;;;;;;;;8.25;6.25;;;;;20.61;37.12;101722.03;4970184;28;45429;-58
2023/05/30 09:21:51;;;;;;;;;8.00;7.00;;;;;20.68;36.64;101717.28;4970775;28;45393;-57
2023/05/30 09:24:17;;;;;;;;;6.75;5.00;;;;;20.72;36.70;101722.50;4970560;28;45449;-58
2023/05/30 09:27:02;;;;;;;;;6.25;6.00;;;;;20.79;36.71;101712.41;4970182;28;45342;-58
2023/05/30 09:29:28;;;;;;;;;4.75;4.75;;;;;20.85;36.59;101713.97;4971210;28;45525;-58
2023/05/30 09:31:55;;;;;;;;;8.00;6.50;;;;;20.93;37.01;101714.53;4968645;28;45385;-58
2023/05/30 09:34:20;;;;;;;;;8.50;5.75;;;;;20.99;36.54;101708.91;4968455;28;45361;-58
2023/05/30 09:36:55;;;;;;;;;8.75;6.00;;;;;21.06;36.96;101713.03;4968800;28;45660;-55
2023/05/30 09:39:21;;;;;;;;;3.75;3.75;;;;;21.11;36.64;101704.84;4970023;28;46270;-57
2023/05/30 09:41:47;;;;;;;;;4.25;3.50;;;;;21.20;36.45;101711.59;4969611;28;45374;-57
2023/05/30 09:44:12;;;;;;;;;6.00;6.00;;;;;21.26;36.85;101700.63;4965563;28;45311;-58
2023/05/30 09:46:38;;;;;;;;;6.75;6.75;;;;;21.37;36.88;101716.19;4961416;28;45509;-54
2023/05/30 09:49:11;;;;;;;;;2.00;1.00;;;;;21.45;36.92;101711.38;4960893;28;46146;-51
2023/05/30 09:51:37;;;;;;;;;7.00;5.75;;;;;21.51;36.91;101703.09;4980693;28;45298;-54
2023/05/30 09:54:04;;;;;;;;;7.00;5.00;;;;;21.51;37.02;101703.09;4980869;28;45271;-52
2023/05/30 09:56:39;;;;;;;;;5.50;5.50;;;;;21.67;36.45;101710.44;4980642;28;45555;-54
2023/05/30 09:59:13;;;;;;;;;7.50;6.25;;;;;21.76;37.01;101715.38;4972776;28;46726;-55
2023/05/30 10:01:39;;;;;;;;;7.00;6.00;;;;;21.85;36.60;101711.41;4961180;28;45525;-53
2023/05/30 10:04:11;;;;;;;;;9.00;6.75;;;;;21.95;36.86;101726.09;4960932;28;45350;-54
2023/05/30 10:06:40;;;;;;;;;3.25;3.25;;;;;21.99;36.88;101711.63;4963678;28;46028;-53
2023/05/30 10:09:07;;;;;;;;;5.75;5.50;;;;;22.14;36.57;101712.69;4979143;28;46262;-56
2023/05/30 10:11:32;;;;;;;;;7.75;5.75;;;;;22.28;36.51;101708.50;4980320;28;45334;-54
2023/05/30 10:13:59;;;;;;;;;8.00;5.00;;;;;22.43;36.74;101709.56;4980819;28;45429;-53
2023/05/30 10:16:27;;;;;;;;;5.75;4.75;;;;;22.52;36.69;101696.59;4980351;28;45171;-55
2023/05/30 10:18:59;;;;;;;;;6.00;5.25;;;;;22.76;36.74;101704.38;4980323;28;46513;-55
2023/05/30 10:21:25;;;;;;;;;6.00;6.00;;;;;22.97;37.00;101709.59;4980388;28;45348;-53
2023/05/30 10:23:53;;;;;;;;;8.00;6.25;;;;;23.12;36.96;101706.09;4980634;28;45311;-56
2023/05/30 10:26:20;;;;;;;;;7.50;6.50;;;;;23.35;36.79;101710.28;4976435;28;45357;-53
2023/05/30 10:28:49;;;;;;;;;3.75;3.75;;;;;23.61;37.04;101710.72;4966428;28;47238;-52
2023/05/30 10:31:15;;;;;;;;;7.00;5.50;;;;;23.92;36.90;101711.75;4967494;28;45230;-53
2023/05/30 10:33:48;;;;;;;;;10.00;6.75;;;;;24.29;37.34;101714.19;4974791;28;45279;-56
2023/05/30 10:36:13;;;;;;;;;8.00;6.00;;;;;24.70;37.18;101715.47;4980853;28;45362;-53
2023/05/30 10:38:51;;;;;;;;;9.00;6.25;;;;;25.12;37.51;101705.81;4963480;28;46206;-54
2023/05/30 10:41:32;;;;;;;;;5.00;4.75;;;;;25.67;37.39;101708.75;4965543;28;45239;-54
2023/05/30 10:44:01;;;;;;;;;7.50;5.25;;;;;26.19;37.58;101708.13;4980402;28;45479;-53
2023/05/30 10:46:51;;;;;;;;;7.00;5.00;;;;;26.80;37.63;101705.03;4980075;28;45523;-55
2023/05/30 10:49:22;;;;;;;;;6.75;6.75;;;;;27.39;37.53;101696.50;4979791;28;46419;-54
2023/05/30 10:52:03;;;;;;;;;7.00;6.75;;;;;28.03;37.53;101700.06;4978858;28;45238;-54
2023/05/30 10:54:34;;;;;;;;;10.50;9.75;;;;;28.59;37.89;101702.25;4981884;28;45235;-55
2023/05/30 10:57:20;;;;;;;;;5.00;5.00;;;;;29.22;37.26;101696.56;4983243;28;46114;-53
2023/05/30 10:59:46;;;;;;;;;10.50;7.75;;;;;29.77;37.04;101690.44;4983281;28;46359;-55
2023/05/30 11:02:17;;;;;;;;;5.00;5.00;;;;;30.33;37.48;101694.91;4982998;28;45330;-54
2023/05/30 11:04:42;;;;;;;;;5.75;5.00;;;;;30.86;37.15;101687.81;4983480;28;45528;-54
2023/05/30 11:07:10;;;;;;;;;8.50;4.00;;;;;31.36;36.72;101677.13;4966912;28;45219;-55
2023/05/30 11:09:41;;;;;;;;;8.50;6.00;;;;;31.85;36.44;101687.31;4963890;28;46165;-56
2023/05/30 11:12:08;;;;;;;;;8.75;6.00;;;;;32.19;36.92;101654.38;4963733;28;45177;-56
2023/05/30 11:14:39;;;;;;;;;5.50;4.00;;;;;32.78;36.18;101676.16;4963964;28;45437;-56
2023/05/30 11:17:06;;;;;;;;;6.00;4.00;;;;;33.22;35.62;101679.19;4963216;28;45341;-55
2023/05/30 11:19:43;;;;;;;;;6.50;5.50;;;;;33.64;35.60;101672.47;4963567;28;45247;-54
2023/05/30 11:22:15;;;;;;;;;3.75;3.25;;;;;34.09;35.50;101670.78;4963592;28;45300;-54
2023/05/30 11:24:41;;;;;;;;;3.50;3.50;;;;;34.52;35.34;101677.38;4963391;28;45334;-54